Time;durP1;ratioP1;P1;durP2;ratioP2;P2;SDS_P1;SDS_P2;PMS_P1;PMS_P2;Temp;Humidity;BMP_temperature;BMP_pressure;BME280_temperature;BME280_humidity;BME280_pressure;Samples;Min_cycle;Max_cycle;Signal;HPM_P1;HPM_P2
2022/06/28 00:01:18;;;;;;;16.77;2.30;;;;;;;;;;4921818;28;20110;-69
2022/06/28 00:03:45;;;;;;;11.63;2.40;;;;;;;;;;4926775;28;20031;-69
2022/06/28 00:06:11;;;;;;;11.13;2.25;;;;;;;;;;4917658;28;20074;-70
2022/06/28 00:08:37;;;;;;;12.82;2.22;;;;;;;;;;4915093;28;20035;-69
2022/06/28 00:11:03;;;;;;;13.85;2.50;;;;;;;;;;4917951;28;20041;-69
2022/06/28 00:13:29;;;;;;;12.55;2.22;;;;;;;;;;4922838;28;20070;-69
2022/06/28 00:16:08;;;;;;;12.05;2.25;;;;;;;;;;4924138;28;20415;-70
2022/06/28 00:18:38;;;;;;;11.63;2.30;;;;;;;;;;4921739;28;20509;-70
2022/06/28 00:21:08;;;;;;;14.25;2.78;;;;;;;;;;4919794;28;20028;-70
2022/06/28 00:23:38;;;;;;;11.82;2.10;;;;;;;;;;4925799;28;20027;-69
2022/06/28 00:26:04;;;;;;;13.05;2.40;;;;;;;;;;4922433;28;20517;-70
2022/06/28 00:28:31;;;;;;;13.63;2.28;;;;;;;;;;4926018;28;20079;-69
2022/06/28 00:30:57;;;;;;;15.70;2.58;;;;;;;;;;4921022;28;20039;-69
2022/06/28 00:33:23;;;;;;;10.57;2.20;;;;;;;;;;4928537;28;20081;-69
2022/06/28 00:35:49;;;;;;;8.20;1.77;;;;;;;;;;4927380;28;20040;-69
2022/06/28 00:38:16;;;;;;;11.02;2.30;;;;;;;;;;4919710;28;20035;-70
2022/06/28 00:40:47;;;;;;;11.98;2.20;;;;;;;;;;4926528;28;20034;-69
2022/06/28 00:43:14;;;;;;;10.35;2.13;;;;;;;;;;4922747;28;20051;-69
2022/06/28 00:45:42;;;;;;;15.68;2.53;;;;;;;;;;4928092;28;20434;-70
2022/06/28 00:48:09;;;;;;;17.88;2.53;;;;;;;;;;4924225;28;20075;-70
2022/06/28 00:50:36;;;;;;;11.25;2.28;;;;;;;;;;4925342;28;20034;-70
2022/06/28 00:53:03;;;;;;;12.15;2.47;;;;;;;;;;4918507;28;20054;-69
2022/06/28 00:55:30;;;;;;;16.83;2.10;;;;;;;;;;4928555;28;20054;-69
2022/06/28 00:57:56;;;;;;;13.77;2.47;;;;;;;;;;4926477;28;20027;-70
2022/06/28 01:00:22;;;;;;;12.80;2.50;;;;;;;;;;4922027;28;20038;-69
2022/06/28 01:02:48;;;;;;;12.98;2.67;;;;;;;;;;4925805;28;20462;-69
2022/06/28 01:05:14;;;;;;;14.23;2.72;;;;;;;;;;4919433;28;20036;-69
2022/06/28 01:07:41;;;;;;;13.90;2.35;;;;;;;;;;4926600;28;21035;-69
2022/06/28 01:10:08;;;;;;;9.20;1.90;;;;;;;;;;4920684;28;20485;-69
2022/06/28 01:12:34;;;;;;;13.23;2.38;;;;;;;;;;4922879;28;20111;-69
2022/06/28 01:15:01;;;;;;;12.23;2.30;;;;;;;;;;4920312;28;20046;-69
2022/06/28 01:17:27;;;;;;;12.52;2.45;;;;;;;;;;4925575;28;20055;-69
2022/06/28 01:19:53;;;;;;;11.85;2.55;;;;;;;;;;4931380;28;20038;-69
2022/06/28 01:22:21;;;;;;;11.02;2.50;;;;;;;;;;4928526;28;20718;-69
2022/06/28 01:24:47;;;;;;;13.20;2.35;;;;;;;;;;4933860;28;20093;-70
2022/06/28 01:27:13;;;;;;;15.00;2.72;;;;;;;;;;4928863;28;20035;-69
2022/06/28 01:29:40;;;;;;;12.02;2.45;;;;;;;;;;4931728;28;20258;-69
2022/06/28 01:32:06;;;;;;;13.80;2.92;;;;;;;;;;4926779;28;20041;-70
2022/06/28 01:34:32;;;;;;;12.15;2.47;;;;;;;;;;4935884;28;20117;-70
2022/06/28 01:36:58;;;;;;;13.10;2.47;;;;;;;;;;4926194;28;20351;-70
2022/06/28 01:39:24;;;;;;;12.63;2.60;;;;;;;;;;4933341;28;20478;-70
2022/06/28 01:41:51;;;;;;;14.95;2.65;;;;;;;;;;4933564;28;20114;-69
2022/06/28 01:44:17;;;;;;;15.40;2.60;;;;;;;;;;4932202;28;20090;-69
2022/06/28 01:46:44;;;;;;;11.70;2.92;;;;;;;;;;4935059;28;20119;-70
2022/06/28 01:49:11;;;;;;;13.95;2.63;;;;;;;;;;4923714;28;20549;-69
2022/06/28 01:51:38;;;;;;;13.55;2.70;;;;;;;;;;4932742;28;20550;-69
2022/06/28 01:54:08;;;;;;;13.27;2.70;;;;;;;;;;4930893;28;20035;-70
2022/06/28 01:56:35;;;;;;;12.05;2.50;;;;;;;;;;4913393;28;20383;-69
2022/06/28 01:59:03;;;;;;;11.30;2.20;;;;;;;;;;4928638;28;20280;-69
2022/06/28 02:01:30;;;;;;;14.88;2.55;;;;;;;;;;4933149;28;20593;-71
2022/06/28 02:03:58;;;;;;;15.55;2.75;;;;;;;;;;4933038;28;20727;-69
2022/06/28 02:06:26;;;;;;;12.52;2.55;;;;;;;;;;4928639;28;20417;-69
2022/06/28 02:08:54;;;;;;;11.85;2.80;;;;;;;;;;4923406;28;20466;-69
2022/06/28 02:11:23;;;;;;;13.57;2.42;;;;;;;;;;4919971;28;20038;-69
2022/06/28 02:13:50;;;;;;;16.30;2.92;;;;;;;;;;4927070;28;20038;-70
2022/06/28 02:16:17;;;;;;;17.38;3.47;;;;;;;;;;4925953;28;23725;-70
2022/06/28 02:18:43;;;;;;;16.40;2.95;;;;;;;;;;4926828;28;20228;-70
2022/06/28 02:21:11;;;;;;;14.60;3.35;;;;;;;;;;4924464;28;20126;-71
2022/06/28 02:23:38;;;;;;;15.68;2.63;;;;;;;;;;4924563;28;20127;-71
2022/06/28 02:26:07;;;;;;;16.08;3.65;;;;;;;;;;4920684;28;20031;-70
2022/06/28 02:28:34;;;;;;;15.18;2.90;;;;;;;;;;4907187;28;20525;-70
2022/06/28 02:31:01;;;;;;;14.07;3.08;;;;;;;;;;4919209;28;20140;-69
2022/06/28 02:33:27;;;;;;;19.48;3.20;;;;;;;;;;4924952;28;20424;-69
2022/06/28 02:41:22;;;;;;;17.58;3.40;;;;;;;;;;4927188;28;20039;-69
2022/06/28 02:43:48;;;;;;;16.25;3.10;;;;;;;;;;4921870;28;20042;-71
2022/06/28 02:46:14;;;;;;;13.32;3.20;;;;;;;;;;4920982;28;20147;-70
2022/06/28 02:48:40;;;;;;;16.35;3.10;;;;;;;;;;4926215;28;20770;-71
2022/06/28 02:51:06;;;;;;;13.10;3.05;;;;;;;;;;4920747;28;20035;-70
2022/06/28 02:53:32;;;;;;;15.02;3.05;;;;;;;;;;4921503;28;20101;-70
2022/06/28 02:55:58;;;;;;;14.48;3.05;;;;;;;;;;4919562;28;20047;-70
2022/06/28 02:58:25;;;;;;;13.70;3.00;;;;;;;;;;4928597;28;20031;-70
2022/06/28 03:00:52;;;;;;;14.15;2.70;;;;;;;;;;4923329;28;20032;-70
2022/06/28 03:03:21;;;;;;;13.43;2.92;;;;;;;;;;4920498;28;20036;-70
2022/06/28 03:05:50;;;;;;;19.75;2.83;;;;;;;;;;4928964;28;20102;-70
2022/06/28 03:08:18;;;;;;;14.90;2.95;;;;;;;;;;4919574;28;22129;-70
2022/06/28 03:10:46;;;;;;;16.05;3.33;;;;;;;;;;4922635;28;20047;-69
2022/06/28 03:13:13;;;;;;;12.85;2.83;;;;;;;;;;4917214;28;20048;-69
2022/06/28 03:15:43;;;;;;;12.00;2.80;;;;;;;;;;4925598;28;20038;-70
2022/06/28 03:18:11;;;;;;;15.88;2.70;;;;;;;;;;4918193;28;20031;-69
2022/06/28 03:20:39;;;;;;;15.07;3.22;;;;;;;;;;4920835;28;20037;-72
2022/06/28 03:23:06;;;;;;;13.65;2.97;;;;;;;;;;4926083;28;20134;-69
2022/06/28 03:25:34;;;;;;;15.15;2.97;;;;;;;;;;4921624;28;20054;-70
2022/06/28 03:28:03;;;;;;;12.93;2.70;;;;;;;;;;4915861;28;20106;-71
2022/06/28 03:30:29;;;;;;;12.95;2.53;;;;;;;;;;4924167;28;20322;-71
2022/06/28 03:32:57;;;;;;;15.10;3.25;;;;;;;;;;4921680;28;20395;-71
2022/06/28 03:35:27;;;;;;;15.10;3.20;;;;;;;;;;4941585;28;20046;-71
2022/06/28 03:37:55;;;;;;;13.90;3.90;;;;;;;;;;4926897;28;20035;-71
2022/06/28 03:40:22;;;;;;;17.55;4.38;;;;;;;;;;4917159;28;20055;-71
2022/06/28 03:42:50;;;;;;;16.95;3.60;;;;;;;;;;4926411;28;20453;-70
2022/06/28 03:45:17;;;;;;;18.20;3.40;;;;;;;;;;4920751;28;20042;-70
2022/06/28 03:47:44;;;;;;;17.45;3.90;;;;;;;;;;4923202;28;20073;-71
2022/06/28 03:50:13;;;;;;;19.55;3.83;;;;;;;;;;4921313;28;20039;-70
2022/06/28 03:52:40;;;;;;;18.95;4.57;;;;;;;;;;4922985;28;20420;-70
2022/06/28 03:55:08;;;;;;;19.13;3.85;;;;;;;;;;4918117;28;20201;-70
2022/06/28 03:57:35;;;;;;;17.48;3.58;;;;;;;;;;4928159;28;20058;-70
2022/06/28 04:00:04;;;;;;;16.00;3.55;;;;;;;;;;4928957;28;20054;-69
2022/06/28 04:02:32;;;;;;;13.23;3.63;;;;;;;;;;4948200;28;20041;-70
2022/06/28 04:05:00;;;;;;;17.58;4.00;;;;;;;;;;4945720;28;20143;-69
2022/06/28 04:07:28;;;;;;;19.13;3.95;;;;;;;;;;4931139;28;20039;-70
2022/06/28 04:09:56;;;;;;;16.58;3.70;;;;;;;;;;4948704;28;20557;-69
2022/06/28 04:12:25;;;;;;;14.82;3.50;;;;;;;;;;4948706;28;20035;-70
2022/06/28 04:14:52;;;;;;;16.10;3.83;;;;;;;;;;4930426;28;20039;-69
2022/06/28 04:17:19;;;;;;;18.70;3.70;;;;;;;;;;4948690;28;20027;-70
2022/06/28 04:19:45;;;;;;;11.57;3.60;;;;;;;;;;4952468;28;20037;-70
2022/06/28 04:22:13;;;;;;;14.82;3.17;;;;;;;;;;4929380;28;20252;-69
2022/06/28 04:24:40;;;;;;;16.08;3.53;;;;;;;;;;4950160;28;20654;-69
2022/06/28 04:27:10;;;;;;;15.20;3.42;;;;;;;;;;4923524;28;20371;-69
2022/06/28 04:29:38;;;;;;;15.80;3.30;;;;;;;;;;4949098;28;20035;-69
2022/06/28 04:32:05;;;;;;;15.75;3.58;;;;;;;;;;4945326;28;20368;-70
2022/06/28 04:34:36;;;;;;;15.88;3.72;;;;;;;;;;4951583;28;20390;-70
2022/06/28 04:37:04;;;;;;;15.88;3.40;;;;;;;;;;4928103;28;20053;-70
2022/06/28 04:39:30;;;;;;;22.20;4.10;;;;;;;;;;4948354;28;20438;-69
2022/06/28 04:41:57;;;;;;;17.23;3.33;;;;;;;;;;4945667;28;20267;-69
2022/06/28 04:44:24;;;;;;;17.75;3.75;;;;;;;;;;4928173;28;20488;-69
2022/06/28 04:46:53;;;;;;;15.70;3.10;;;;;;;;;;4941395;28;20844;-69
2022/06/28 04:49:20;;;;;;;16.10;3.30;;;;;;;;;;4933148;28;20445;-70
2022/06/28 04:51:49;;;;;;;13.73;2.75;;;;;;;;;;4935130;28;20037;-69
2022/06/28 04:54:15;;;;;;;16.77;3.33;;;;;;;;;;4928908;28;20030;-69
2022/06/28 04:56:43;;;;;;;21.73;3.45;;;;;;;;;;4922128;28;20070;-71
2022/06/28 04:59:10;;;;;;;13.43;3.25;;;;;;;;;;4917675;28;20058;-70
2022/06/28 05:01:38;;;;;;;16.70;3.15;;;;;;;;;;4920015;28;20087;-70
2022/06/28 05:04:06;;;;;;;15.20;3.20;;;;;;;;;;4933781;28;20065;-70
2022/06/28 05:06:35;;;;;;;16.38;3.10;;;;;;;;;;4926216;28;20141;-70
2022/06/28 05:09:03;;;;;;;17.17;3.80;;;;;;;;;;4926194;28;20055;-70
2022/06/28 05:11:30;;;;;;;19.23;4.60;;;;;;;;;;4933927;28;20047;-69
2022/06/28 05:14:00;;;;;;;13.07;4.05;;;;;;;;;;4918655;28;20628;-70
2022/06/28 05:16:30;;;;;;;17.17;4.43;;;;;;;;;;4938575;28;20320;-72
2022/06/28 05:18:56;;;;;;;15.43;4.00;;;;;;;;;;4933209;28;20049;-70
2022/06/28 05:21:25;;;;;;;19.50;4.15;;;;;;;;;;4912877;28;20053;-70
2022/06/28 05:23:52;;;;;;;18.42;4.10;;;;;;;;;;4915047;28;20054;-70
2022/06/28 05:26:25;;;;;;;13.70;4.10;;;;;;;;;;4930323;28;20034;-70
2022/06/28 05:28:53;;;;;;;12.80;3.75;;;;;;;;;;4930434;28;20027;-70
2022/06/28 05:31:19;;;;;;;12.88;3.38;;;;;;;;;;4927165;28;20093;-70
2022/06/28 05:33:45;;;;;;;18.02;4.35;;;;;;;;;;4913931;28;20035;-70
2022/06/28 05:36:11;;;;;;;14.63;3.70;;;;;;;;;;4918509;28;20036;-71
2022/06/28 05:38:37;;;;;;;18.45;4.22;;;;;;;;;;4930384;28;20482;-71
2022/06/28 05:41:03;;;;;;;26.10;12.82;;;;;;;;;;4929597;28;20030;-71
2022/06/28 05:43:30;;;;;;;25.20;7.32;;;;;;;;;;4931238;28;20035;-70
2022/06/28 05:45:56;;;;;;;13.82;3.88;;;;;;;;;;4930077;28;20052;-71
2022/06/28 05:48:22;;;;;;;18.17;3.13;;;;;;;;;;4922790;28;20041;-71
2022/06/28 05:50:48;;;;;;;18.30;3.30;;;;;;;;;;4934199;28;20037;-69
2022/06/28 05:53:15;;;;;;;15.10;2.97;;;;;;;;;;4932684;28;20050;-70
2022/06/28 05:55:41;;;;;;;15.55;3.20;;;;;;;;;;4921157;28;20385;-70
2022/06/28 05:58:07;;;;;;;14.50;3.33;;;;;;;;;;4933588;28;20034;-70
2022/06/28 06:00:34;;;;;;;17.33;3.08;;;;;;;;;;4922257;28;20682;-70
2022/06/28 06:03:00;;;;;;;20.17;3.60;;;;;;;;;;4934877;28;20361;-70
2022/06/28 06:05:27;;;;;;;13.73;3.22;;;;;;;;;;4943820;28;20138;-70
2022/06/28 06:07:53;;;;;;;20.40;4.00;;;;;;;;;;4944185;28;20627;-70
2022/06/28 06:10:19;;;;;;;21.15;3.55;;;;;;;;;;4938869;28;21533;-70
2022/06/28 06:12:46;;;;;;;20.67;3.55;;;;;;;;;;4943580;28;20031;-70
2022/06/28 06:15:15;;;;;;;21.90;3.67;;;;;;;;;;4923942;28;20041;-72
2022/06/28 06:17:41;;;;;;;19.63;3.42;;;;;;;;;;4945100;28;20031;-71
2022/06/28 06:20:08;;;;;;;14.82;3.08;;;;;;;;;;4936885;28;20465;-70
2022/06/28 06:22:35;;;;;;;20.13;3.53;;;;;;;;;;4939594;28;20126;-70
2022/06/28 06:25:01;;;;;;;17.27;2.90;;;;;;;;;;4916840;28;20467;-71
2022/06/28 06:27:27;;;;;;;15.80;2.80;;;;;;;;;;4942311;28;20046;-71
2022/06/28 06:29:53;;;;;;;11.85;2.72;;;;;;;;;;4943745;28;20114;-71
2022/06/28 06:32:20;;;;;;;18.17;3.70;;;;;;;;;;4919754;28;20096;-72
2022/06/28 06:34:47;;;;;;;18.65;5.28;;;;;;;;;;4936010;28;20050;-69
2022/06/28 06:37:13;;;;;;;14.82;3.25;;;;;;;;;;4918954;28;20422;-72
2022/06/28 06:39:39;;;;;;;14.45;3.88;;;;;;;;;;4924198;28;20665;-71
2022/06/28 06:42:05;;;;;;;14.18;3.15;;;;;;;;;;4935316;28;20435;-70
2022/06/28 06:44:31;;;;;;;15.73;2.92;;;;;;;;;;4934329;28;20118;-70
2022/06/28 06:46:57;;;;;;;16.65;2.88;;;;;;;;;;4913539;28;20113;-70
2022/06/28 06:49:25;;;;;;;14.65;3.13;;;;;;;;;;4938658;28;20085;-70
2022/06/28 06:51:51;;;;;;;11.85;2.60;;;;;;;;;;4936242;28;20041;-70
2022/06/28 06:54:17;;;;;;;16.70;3.20;;;;;;;;;;4919334;28;20035;-70
2022/06/28 06:56:44;;;;;;;22.13;3.15;;;;;;;;;;4940914;28;20397;-70
2022/06/28 06:59:13;;;;;;;16.70;2.97;;;;;;;;;;4933130;28;20039;-69
2022/06/28 07:01:40;;;;;;;15.68;2.50;;;;;;;;;;4921293;28;20296;-70
2022/06/28 07:04:06;;;;;;;20.52;2.92;;;;;;;;;;4930227;28;20480;-69
2022/06/28 07:06:32;;;;;;;13.38;2.67;;;;;;;;;;4922418;28;20137;-69
2022/06/28 07:08:59;;;;;;;18.92;3.60;;;;;;;;;;4915826;28;20146;-69
2022/06/28 07:11:26;;;;;;;20.80;3.13;;;;;;;;;;4918359;28;20061;-70
2022/06/28 07:13:52;;;;;;;14.05;2.30;;;;;;;;;;4936675;28;20512;-70
2022/06/28 07:16:19;;;;;;;17.05;2.75;;;;;;;;;;4938714;28;20848;-70
2022/06/28 07:18:45;;;;;;;16.13;2.70;;;;;;;;;;4920201;28;20603;-70
2022/06/28 07:21:12;;;;;;;8.00;1.90;;;;;;;;;;4936992;28;20474;-70
2022/06/28 07:23:38;;;;;;;10.63;1.98;;;;;;;;;;4936335;28;20038;-70
2022/06/28 07:26:06;;;;;;;11.07;2.10;;;;;;;;;;4914763;28;20031;-70
2022/06/28 07:28:34;;;;;;;11.48;2.30;;;;;;;;;;4941745;28;20030;-70
2022/06/28 07:31:02;;;;;;;11.38;2.30;;;;;;;;;;4936888;28;20039;-70
2022/06/28 07:33:29;;;;;;;9.38;2.00;;;;;;;;;;4919025;28;20668;-69
2022/06/28 07:35:57;;;;;;;9.80;2.47;;;;;;;;;;4920271;28;20030;-71
2022/06/28 07:38:29;;;;;;;7.55;1.77;;;;;;;;;;4938318;28;20069;-69
2022/06/28 07:40:56;;;;;;;11.15;1.95;;;;;;;;;;4923842;28;21073;-72
2022/06/28 07:43:23;;;;;;;11.23;2.15;;;;;;;;;;4921794;28;20034;-70
2022/06/28 07:45:49;;;;;;;8.90;1.85;;;;;;;;;;4941848;28;20469;-71
2022/06/28 07:48:16;;;;;;;10.85;2.10;;;;;;;;;;4920596;28;20034;-71
2022/06/28 07:53:27;;;;;;;9.27;2.47;;;;;;;;;;4936204;28;20370;-68
2022/06/28 07:55:53;;;;;;;8.70;1.85;;;;;;;;;;4920702;28;20397;-71
2022/06/28 07:58:19;;;;;;;14.75;2.70;;;;;;;;;;4918241;28;20030;-71
2022/06/28 08:00:46;;;;;;;9.73;2.17;;;;;;;;;;4927957;28;20157;-71
2022/06/28 08:03:12;;;;;;;13.05;2.38;;;;;;;;;;4922484;28;20125;-71
2022/06/28 08:05:38;;;;;;;10.30;2.17;;;;;;;;;;4920626;28;20042;-71
2022/06/28 08:08:05;;;;;;;8.40;1.95;;;;;;;;;;4919451;28;20676;-71
2022/06/28 08:10:31;;;;;;;13.15;2.40;;;;;;;;;;4925853;28;20054;-71
2022/06/28 08:12:57;;;;;;;9.95;1.92;;;;;;;;;;4925245;28;20035;-70
2022/06/28 08:15:24;;;;;;;12.75;2.15;;;;;;;;;;4936063;28;20053;-71
2022/06/28 08:17:50;;;;;;;13.30;2.22;;;;;;;;;;4931167;28;20663;-76
2022/06/28 08:20:24;;;;;;;11.60;2.53;;;;;;;;;;4942761;28;20070;-76
2022/06/28 08:22:53;;;;;;;10.98;2.22;;;;;;;;;;4929725;28;20035;-70
2022/06/28 08:25:20;;;;;;;11.23;2.28;;;;;;;;;;4916135;28;20039;-70
2022/06/28 08:27:47;;;;;;;10.95;2.00;;;;;;;;;;4945377;28;20086;-70
2022/06/28 08:30:13;;;;;;;12.40;2.22;;;;;;;;;;4936006;28;20035;-70
2022/06/28 08:32:39;;;;;;;13.80;2.63;;;;;;;;;;4922080;28;20027;-70
2022/06/28 08:35:05;;;;;;;10.88;2.47;;;;;;;;;;4930007;28;20054;-70
2022/06/28 08:37:31;;;;;;;15.20;2.58;;;;;;;;;;4918825;28;20291;-71
2022/06/28 08:39:58;;;;;;;11.52;2.47;;;;;;;;;;4936063;28;20461;-70
2022/06/28 08:42:26;;;;;;;12.18;2.50;;;;;;;;;;4936048;28;20053;-70
2022/06/28 08:44:53;;;;;;;11.82;2.60;;;;;;;;;;4940020;28;20031;-71
2022/06/28 08:47:23;;;;;;;13.10;2.35;;;;;;;;;;4936526;28;20421;-71
2022/06/28 08:49:57;;;;;;;10.25;2.03;;;;;;;;;;4936249;28;20038;-71
2022/06/28 08:52:24;;;;;;;12.68;2.58;;;;;;;;;;4917751;28;20027;-71
2022/06/28 08:54:51;;;;;;;14.15;2.63;;;;;;;;;;4921896;28;20101;-73
2022/06/28 08:57:18;;;;;;;14.23;2.40;;;;;;;;;;4922041;28;20742;-73
2022/06/28 08:59:45;;;;;;;13.85;2.67;;;;;;;;;;4941454;28;20463;-72
2022/06/28 09:02:13;;;;;;;11.43;2.63;;;;;;;;;;4916865;28;20030;-73
2022/06/28 09:04:39;;;;;;;10.38;2.15;;;;;;;;;;4934965;28;20042;-72
2022/06/28 09:07:07;;;;;;;12.00;2.33;;;;;;;;;;4932143;28;20218;-71
2022/06/28 09:09:33;;;;;;;12.88;2.47;;;;;;;;;;4934968;28;20027;-73
2022/06/28 09:11:59;;;;;;;17.80;2.85;;;;;;;;;;4914750;28;20027;-74
2022/06/28 09:14:27;;;;;;;12.48;2.53;;;;;;;;;;4921252;28;20087;-72
2022/06/28 09:16:54;;;;;;;10.98;2.55;;;;;;;;;;4918881;28;20535;-72
2022/06/28 09:19:43;;;;;;;11.10;2.55;;;;;;;;;;4917819;28;20364;-73
2022/06/28 09:22:09;;;;;;;11.90;2.58;;;;;;;;;;4914509;28;20748;-72
2022/06/28 09:24:35;;;;;;;10.15;2.17;;;;;;;;;;4938781;28;20033;-72
2022/06/28 09:27:04;;;;;;;12.65;2.55;;;;;;;;;;4916757;28;20397;-68
2022/06/28 09:29:30;;;;;;;10.27;2.38;;;;;;;;;;4938486;28;20069;-69
2022/06/28 09:31:56;;;;;;;10.57;2.00;;;;;;;;;;4916861;28;20035;-69
2022/06/28 09:34:23;;;;;;;12.77;2.30;;;;;;;;;;4940255;28;20187;-69
2022/06/28 09:36:56;;;;;;;11.55;2.47;;;;;;;;;;4936490;28;20437;-69
2022/06/28 09:39:26;;;;;;;10.52;2.40;;;;;;;;;;4940642;28;20094;-69
2022/06/28 09:41:53;;;;;;;10.20;2.17;;;;;;;;;;4938224;28;20032;-69
2022/06/28 09:44:26;;;;;;;12.35;3.15;;;;;;;;;;4913748;28;20027;-69
2022/06/28 09:46:54;;;;;;;11.45;3.13;;;;;;;;;;4934037;28;20101;-69
2022/06/28 09:49:29;;;;;;;12.68;2.83;;;;;;;;;;4932388;28;20117;-69
2022/06/28 09:51:59;;;;;;;14.23;2.92;;;;;;;;;;4926767;28;20751;-69
2022/06/28 09:54:27;;;;;;;14.85;3.13;;;;;;;;;;4946782;28;20754;-73
2022/06/28 09:56:55;;;;;;;17.08;3.00;;;;;;;;;;4939647;28;20520;-73
2022/06/28 09:59:31;;;;;;;15.20;2.50;;;;;;;;;;4907745;28;20089;-73
2022/06/28 10:02:00;;;;;;;16.38;3.28;;;;;;;;;;4924483;28;20062;-73
2022/06/28 10:04:28;;;;;;;22.17;3.58;;;;;;;;;;4941376;28;20118;-73
2022/06/28 10:06:56;;;;;;;11.73;2.63;;;;;;;;;;4925086;28;20057;-73
2022/06/28 10:09:25;;;;;;;13.23;2.60;;;;;;;;;;4945312;28;20676;-73
2022/06/28 10:17:44;;;;;;;11.48;2.67;;;;;;;;;;4941784;28;20102;-74
2022/06/28 10:20:11;;;;;;;11.65;2.30;;;;;;;;;;4934325;28;20370;-71
2022/06/28 10:22:37;;;;;;;11.45;2.60;;;;;;;;;;4940543;28;20030;-72
2022/06/28 10:25:13;;;;;;;15.80;3.25;;;;;;;;;;4919721;28;20058;-72
2022/06/28 10:27:44;;;;;;;11.93;2.92;;;;;;;;;;4923652;28;20065;-72
2022/06/28 10:30:17;;;;;;;15.15;3.25;;;;;;;;;;4915898;28;20059;-72
2022/06/28 10:32:46;;;;;;;13.05;2.80;;;;;;;;;;4939494;28;20035;-72
2022/06/28 10:35:35;;;;;;;12.60;2.70;;;;;;;;;;4920077;28;20093;-72
2022/06/28 10:38:12;;;;;;;13.02;2.35;;;;;;;;;;4930243;28;20479;-72
2022/06/28 10:40:39;;;;;;;10.38;2.47;;;;;;;;;;4920912;28;20030;-71
2022/06/28 10:43:06;;;;;;;12.60;2.17;;;;;;;;;;4919271;28;20050;-70
2022/06/28 10:45:50;;;;;;;11.43;1.98;;;;;;;;;;4940619;28;20050;-70
2022/06/28 10:48:16;;;;;;;13.88;2.35;;;;;;;;;;4936563;28;20037;-70
2022/06/28 10:51:01;;;;;;;11.60;2.35;;;;;;;;;;4940680;28;20038;-70
2022/06/28 10:53:28;;;;;;;12.07;2.50;;;;;;;;;;4938807;28;20066;-70
2022/06/28 10:56:16;;;;;;;15.32;2.40;;;;;;;;;;4940476;28;20409;-70
2022/06/28 10:58:54;;;;;;;13.50;2.72;;;;;;;;;;4931796;28;20035;-74
2022/06/28 11:01:44;;;;;;;12.30;2.53;;;;;;;;;;4937093;28;20118;-71
2022/06/28 11:04:12;;;;;;;12.38;2.40;;;;;;;;;;4935264;28;20037;-73
2022/06/28 11:06:42;;;;;;;15.23;2.47;;;;;;;;;;4928344;28;20042;-72
2022/06/28 11:09:27;;;;;;;10.48;2.20;;;;;;;;;;4932932;28;20038;-68
2022/06/28 11:12:06;;;;;;;10.50;2.15;;;;;;;;;;4917935;28;20428;-68
2022/06/28 11:14:36;;;;;;;15.05;2.72;;;;;;;;;;4919101;28;20318;-68
2022/06/28 11:17:02;;;;;;;10.48;2.38;;;;;;;;;;4938574;28;20041;-68
2022/06/28 11:19:28;;;;;;;10.23;2.40;;;;;;;;;;4943789;28;20029;-69
2022/06/28 11:21:55;;;;;;;12.20;2.50;;;;;;;;;;4936602;28;20035;-69
2022/06/28 11:24:25;;;;;;;11.73;2.60;;;;;;;;;;4916586;28;20023;-68
2022/06/28 11:29:36;;;;;;;13.50;2.83;;;;;;;;;;4928238;28;20264;-68
2022/06/28 11:32:14;;;;;;;15.25;2.97;;;;;;;;;;4943010;28;20041;-68
2022/06/28 11:34:42;;;;;;;14.20;2.90;;;;;;;;;;4933065;28;20837;-68
2022/06/28 11:37:08;;;;;;;17.65;3.08;;;;;;;;;;4943538;28;20043;-67
2022/06/28 11:39:34;;;;;;;11.02;2.72;;;;;;;;;;4950644;28;20689;-67
2022/06/28 11:42:00;;;;;;;13.63;2.40;;;;;;;;;;4931517;28;20065;-68
2022/06/28 11:44:27;;;;;;;12.25;2.47;;;;;;;;;;4951427;28;20037;-68
2022/06/28 11:47:12;;;;;;;;;;;;;;;;;;;;;
2022/06/28 11:49:38;;;;;;;14.18;2.78;;;;;;;;;;4945999;28;20030;-67
2022/06/28 11:52:05;;;;;;;11.73;1.98;;;;;;;;;;4923967;28;20574;-66
2022/06/28 11:54:31;;;;;;;10.40;1.92;;;;;;;;;;4932835;28;20158;-66
2022/06/28 11:56:58;;;;;;;11.43;2.60;;;;;;;;;;4945733;28;20486;-71
2022/06/28 11:59:43;;;;;;;11.45;2.28;;;;;;;;;;4938595;28;20065;-66
2022/06/28 12:02:10;;;;;;;10.82;2.47;;;;;;;;;;4929290;28;20046;-70
2022/06/28 12:04:41;;;;;;;13.55;3.25;;;;;;;;;;4898673;28;20026;-70
2022/06/28 12:07:07;;;;;;;16.38;2.65;;;;;;;;;;4888215;28;20042;-66
2022/06/28 12:09:34;;;;;;;13.35;2.85;;;;;;;;;;4903346;28;20027;-69
2022/06/28 12:12:01;;;;;;;12.52;2.40;;;;;;;;;;4893105;28;20237;-70
2022/06/28 12:14:31;;;;;;;10.70;2.10;;;;;;;;;;4894610;28;21186;-69
2022/06/28 12:16:59;;;;;;;11.55;2.33;;;;;;;;;;4895807;28;20259;-69
2022/06/28 12:19:32;;;;;;;15.15;2.78;;;;;;;;;;4894673;28;20041;-70
2022/06/28 12:22:03;;;;;;;10.93;1.95;;;;;;;;;;4911865;28;20031;-70
2022/06/28 12:24:50;;;;;;;14.02;3.55;;;;;;;;;;4897700;28;20328;-69
2022/06/28 12:27:17;;;;;;;10.57;2.70;;;;;;;;;;4898349;28;21339;-71
2022/06/28 12:29:43;;;;;;;15.75;3.65;;;;;;;;;;4902896;28;20026;-69
2022/06/28 12:32:10;;;;;;;18.30;3.13;;;;;;;;;;4896448;28;20162;-67
2022/06/28 12:34:39;;;;;;;14.60;2.88;;;;;;;;;;4895177;28;20367;-66
2022/06/28 12:37:06;;;;;;;13.73;2.92;;;;;;;;;;4901934;28;20994;-65
2022/06/28 12:39:32;;;;;;;13.27;3.33;;;;;;;;;;4895359;28;20038;-66
2022/06/28 12:41:58;;;;;;;10.65;2.63;;;;;;;;;;4943107;28;20082;-65
2022/06/28 12:44:24;;;;;;;14.00;2.40;;;;;;;;;;4944238;28;20026;-67
2022/06/28 12:46:53;;;;;;;11.02;2.75;;;;;;;;;;4947640;28;20034;-68
2022/06/28 12:49:19;;;;;;;14.80;2.90;;;;;;;;;;4950342;28;20058;-66
2022/06/28 12:51:46;;;;;;;10.18;2.38;;;;;;;;;;4947978;28;20043;-66
2022/06/28 12:54:12;;;;;;;10.80;2.25;;;;;;;;;;4926379;28;20045;-67
2022/06/28 12:56:39;;;;;;;11.68;2.40;;;;;;;;;;4948252;28;20035;-65
2022/06/28 12:59:05;;;;;;;9.50;2.38;;;;;;;;;;4937863;28;20329;-67
2022/06/28 13:01:32;;;;;;;12.32;2.63;;;;;;;;;;4952580;28;20033;-68
2022/06/28 13:03:58;;;;;;;14.00;2.40;;;;;;;;;;4946431;28;20027;-69
2022/06/28 13:06:25;;;;;;;11.68;2.65;;;;;;;;;;4948274;28;20030;-69
2022/06/28 13:08:51;;;;;;;10.98;2.70;;;;;;;;;;4943955;28;20030;-71
2022/06/28 13:11:22;;;;;;;14.25;2.58;;;;;;;;;;4915468;28;20110;-72
2022/06/28 13:13:49;;;;;;;10.82;2.15;;;;;;;;;;4945315;28;20034;-72
2022/06/28 13:16:15;;;;;;;9.85;2.20;;;;;;;;;;4940810;28;20121;-71
2022/06/28 13:18:42;;;;;;;12.43;2.72;;;;;;;;;;4930420;28;20023;-71
2022/06/28 13:21:08;;;;;;;11.73;2.67;;;;;;;;;;4943067;28;20552;-72
2022/06/28 13:23:34;;;;;;;7.85;2.00;;;;;;;;;;4929231;28;20900;-74
2022/06/28 13:26:00;;;;;;;10.05;2.17;;;;;;;;;;4924370;28;20125;-73
2022/06/28 13:28:27;;;;;;;12.82;2.78;;;;;;;;;;4924031;28;20319;-75
2022/06/28 13:30:53;;;;;;;11.95;2.45;;;;;;;;;;4928421;28;20041;-75
2022/06/28 13:33:19;;;;;;;9.80;2.15;;;;;;;;;;4938932;28;20118;-74
2022/06/28 13:35:45;;;;;;;10.73;2.58;;;;;;;;;;4935807;28;20034;-74
2022/06/28 13:38:12;;;;;;;10.27;2.47;;;;;;;;;;4947309;28;20027;-74
2022/06/28 13:40:39;;;;;;;10.00;2.13;;;;;;;;;;4929724;28;20034;-74
2022/06/28 13:43:48;;;;;;;12.32;2.60;;;;;;;;;;4923678;28;20324;-74
2022/06/28 13:45:55;;;;;;;8.10;1.70;;;;;;;;;;4938152;28;20071;-73
2022/06/28 13:48:21;;;;;;;9.65;1.95;;;;;;;;;;4914793;28;20154;-76
2022/06/28 13:50:47;;;;;;;10.10;2.40;;;;;;;;;;4945741;28;20431;-75
2022/06/28 13:53:13;;;;;;;10.27;2.17;;;;;;;;;;4941920;28;20220;-76
2022/06/28 13:55:43;;;;;;;11.35;2.47;;;;;;;;;;4948152;28;20039;-77
2022/06/28 13:58:14;;;;;;;9.48;1.83;;;;;;;;;;4944562;28;20511;-76
2022/06/28 14:00:40;;;;;;;11.45;2.10;;;;;;;;;;4928753;28;20132;-74
2022/06/28 14:03:06;;;;;;;10.55;2.17;;;;;;;;;;4951536;28;20031;-75
2022/06/28 14:05:33;;;;;;;8.52;2.22;;;;;;;;;;4953032;28;20437;-75
2022/06/28 14:07:59;;;;;;;10.60;2.13;;;;;;;;;;4935711;28;20035;-75
2022/06/28 14:10:26;;;;;;;8.60;2.00;;;;;;;;;;4929092;28;20031;-76
2022/06/28 14:13:01;;;;;;;10.40;2.00;;;;;;;;;;4939213;28;20027;-75
2022/06/28 14:15:28;;;;;;;8.35;2.03;;;;;;;;;;4926860;28;20566;-76
2022/06/28 14:18:01;;;;;;;12.43;2.20;;;;;;;;;;4930126;28;20041;-76
2022/06/28 14:20:28;;;;;;;11.70;2.15;;;;;;;;;;4949185;28;20038;-76
2022/06/28 14:22:54;;;;;;;10.65;2.33;;;;;;;;;;4944149;28;20023;-75
2022/06/28 14:25:20;;;;;;;13.95;3.92;;;;;;;;;;4920156;28;20587;-75
2022/06/28 14:27:47;;;;;;;12.93;3.53;;;;;;;;;;4950444;28;20330;-75
2022/06/28 14:30:13;;;;;;;14.35;2.65;;;;;;;;;;4951229;28;20039;-75
2022/06/28 14:32:40;;;;;;;13.98;2.83;;;;;;;;;;4927479;28;20102;-76
2022/06/28 14:35:06;;;;;;;10.57;2.42;;;;;;;;;;4943877;28;20451;-76
2022/06/28 14:37:32;;;;;;;10.50;2.22;;;;;;;;;;4944583;28;20023;-76
2022/06/28 14:39:58;;;;;;;11.85;2.28;;;;;;;;;;4947241;28;20029;-76
2022/06/28 14:42:27;;;;;;;11.75;2.22;;;;;;;;;;4950273;28;20105;-71
2022/06/28 14:44:53;;;;;;;10.60;1.88;;;;;;;;;;4926085;28;20249;-71
2022/06/28 14:47:19;;;;;;;15.20;2.50;;;;;;;;;;4951036;28;20030;-69
2022/06/28 14:49:45;;;;;;;10.20;1.95;;;;;;;;;;4945611;28;20396;-68
2022/06/28 14:52:11;;;;;;;11.57;2.42;;;;;;;;;;4942895;28;21132;-76